createdAt,value
2017-08-24T00:00:08.785Z,0
2017-08-24T00:00:49.323Z,0
2017-08-24T00:01:29.874Z,0
2017-08-24T00:02:10.407Z,0
2017-08-24T00:02:50.953Z,0
2017-08-24T00:03:31.494Z,0
2017-08-24T00:04:12.037Z,0
2017-08-24T00:04:52.578Z,0
2017-08-24T00:05:33.116Z,0
2017-08-24T00:06:13.650Z,0
2017-08-24T00:06:54.189Z,0
2017-08-24T00:07:34.726Z,0
2017-08-24T00:08:15.270Z,0
2017-08-24T00:08:55.811Z,0
2017-08-24T00:09:36.354Z,0
2017-08-24T00:10:16.896Z,0
2017-08-24T00:10:57.438Z,0
2017-08-24T00:11:37.977Z,0
2017-08-24T00:12:18.509Z,0
2017-08-24T00:12:59.058Z,0
2017-08-24T00:13:39.599Z,0
2017-08-24T00:14:20.140Z,0
2017-08-24T00:15:00.682Z,0
2017-08-24T00:15:41.223Z,0
2017-08-24T00:16:21.768Z,0
2017-08-24T00:17:02.306Z,0
2017-08-24T00:17:42.847Z,0
2017-08-24T00:18:23.387Z,0
2017-08-24T00:19:03.936Z,0
2017-08-24T00:19:44.475Z,0
2017-08-24T00:20:25.017Z,0
2017-08-24T00:21:05.622Z,0
2017-08-24T00:21:46.162Z,0
2017-08-24T00:22:26.703Z,0
2017-08-24T00:23:07.241Z,0
2017-08-24T00:23:47.782Z,0
2017-08-24T00:24:28.322Z,0
2017-08-24T00:25:08.861Z,0
2017-08-24T00:25:49.401Z,0
2017-08-24T00:26:29.943Z,0
2017-08-24T00:27:10.486Z,0
2017-08-24T00:27:51.023Z,0
2017-08-24T00:28:31.557Z,0
2017-08-24T00:29:12.100Z,0
2017-08-24T00:29:52.648Z,0
2017-08-24T00:30:33.193Z,0
2017-08-24T00:31:13.730Z,0
2017-08-24T00:31:54.280Z,0
2017-08-24T00:32:34.835Z,0
2017-08-24T00:33:15.348Z,0
2017-08-24T00:33:55.887Z,0
2017-08-24T00:34:36.429Z,0
2017-08-24T00:35:16.979Z,0
2017-08-24T00:35:57.510Z,0
2017-08-24T00:36:38.052Z,0
2017-08-24T00:37:18.588Z,0
2017-08-24T00:37:59.135Z,0
2017-08-24T00:38:39.677Z,0
2017-08-24T00:39:20.215Z,0
2017-08-24T00:40:00.752Z,0
2017-08-24T00:40:41.294Z,0
2017-08-24T00:41:21.855Z,0
2017-08-24T00:42:02.394Z,0
2017-08-24T00:42:42.932Z,0
2017-08-24T00:43:23.473Z,0
2017-08-24T00:44:04.012Z,0
2017-08-24T00:44:44.549Z,0
2017-08-24T00:45:25.095Z,0
2017-08-24T00:46:05.635Z,0
2017-08-24T00:46:46.175Z,0
2017-08-24T00:47:26.710Z,0
2017-08-24T00:48:07.253Z,0
2017-08-24T00:48:47.794Z,0
2017-08-24T00:49:28.341Z,0
2017-08-24T00:50:08.880Z,0
2017-08-24T00:50:49.423Z,0
2017-08-24T00:51:29.957Z,0
2017-08-24T00:52:10.492Z,0
2017-08-24T00:52:51.022Z,0
2017-08-24T00:53:31.560Z,0
2017-08-24T00:54:12.106Z,0
2017-08-24T00:54:52.642Z,0
2017-08-24T00:55:33.186Z,0
2017-08-24T00:56:13.725Z,0
2017-08-24T00:56:54.274Z,0
2017-08-24T00:57:34.815Z,0
2017-08-24T00:58:15.355Z,0
2017-08-24T00:58:55.904Z,0
2017-08-24T00:59:36.432Z,0
2017-08-24T01:00:16.979Z,0
2017-08-24T01:00:57.517Z,0
2017-08-24T01:01:38.054Z,0
2017-08-24T01:02:18.592Z,0
2017-08-24T01:02:59.134Z,0
2017-08-24T01:03:39.678Z,0
2017-08-24T01:04:20.214Z,0
2017-08-24T01:05:00.761Z,0
2017-08-24T01:05:41.302Z,0
2017-08-24T01:06:21.830Z,0
2017-08-24T01:07:02.368Z,0
2017-08-24T01:07:42.911Z,0
2017-08-24T01:08:23.458Z,0
2017-08-24T01:09:04.000Z,0
2017-08-24T01:09:44.542Z,0
2017-08-24T01:10:25.084Z,0
2017-08-24T01:11:05.627Z,0
2017-08-24T01:11:46.166Z,0
2017-08-24T01:12:26.695Z,0
2017-08-24T01:13:07.239Z,0
2017-08-24T01:13:47.778Z,0
2017-08-24T01:14:28.329Z,0
2017-08-24T01:15:08.871Z,0
2017-08-24T01:15:49.398Z,0
2017-08-24T01:16:29.940Z,0
2017-08-24T01:17:10.481Z,0
2017-08-24T01:17:51.022Z,0
2017-08-24T01:18:31.560Z,0
2017-08-24T01:19:12.102Z,0
2017-08-24T01:19:52.641Z,0
2017-08-24T01:20:33.183Z,0
2017-08-24T01:21:13.726Z,0
2017-08-24T01:21:54.266Z,0
2017-08-24T01:22:34.803Z,0
2017-08-24T01:23:15.341Z,0
2017-08-24T01:23:55.881Z,0
2017-08-24T01:24:36.413Z,0
2017-08-24T01:25:16.951Z,0
2017-08-24T01:25:57.492Z,0
2017-08-24T01:26:38.116Z,0
2017-08-24T01:27:18.615Z,0
2017-08-24T01:27:59.161Z,0
2017-08-24T01:28:39.699Z,0
2017-08-24T01:29:20.241Z,0
2017-08-24T01:30:00.780Z,0
2017-08-24T01:30:41.322Z,0
2017-08-24T01:31:21.883Z,0
2017-08-24T01:32:02.408Z,0
2017-08-24T01:32:42.944Z,0
2017-08-24T01:33:23.480Z,0
2017-08-24T01:34:04.023Z,0
2017-08-24T01:34:44.561Z,0
2017-08-24T01:35:25.100Z,0
2017-08-24T01:36:05.647Z,0
2017-08-24T01:36:46.186Z,0
2017-08-24T01:37:26.728Z,0
2017-08-24T01:38:07.266Z,0
2017-08-24T01:38:47.814Z,0
2017-08-24T01:39:28.354Z,0
2017-08-24T01:40:08.895Z,0
2017-08-24T01:40:49.439Z,0
2017-08-24T01:41:29.983Z,0
2017-08-24T01:42:10.527Z,0
2017-08-24T01:42:51.076Z,0
2017-08-24T01:43:31.614Z,0
2017-08-24T01:44:12.160Z,0
2017-08-24T01:44:52.697Z,0
2017-08-24T01:45:33.240Z,0
2017-08-24T01:46:13.772Z,0
2017-08-24T01:46:54.315Z,0
2017-08-24T01:47:34.859Z,0
2017-08-24T01:48:15.383Z,0
2017-08-24T01:48:55.929Z,0
2017-08-24T01:49:36.468Z,0
2017-08-24T01:50:17.034Z,0
2017-08-24T01:50:57.564Z,0
2017-08-24T01:51:38.105Z,0
2017-08-24T01:52:18.643Z,0
2017-08-24T01:52:59.205Z,0
2017-08-24T01:53:39.717Z,0
2017-08-24T01:54:20.264Z,0
2017-08-24T01:55:00.803Z,0
2017-08-24T01:55:41.344Z,0
2017-08-24T01:56:21.885Z,0
2017-08-24T01:57:02.426Z,0
2017-08-24T01:57:42.972Z,0
2017-08-24T01:58:23.514Z,0
2017-08-24T01:59:04.058Z,0
2017-08-24T01:59:44.603Z,0
2017-08-24T02:00:25.140Z,0
2017-08-24T02:01:05.685Z,0
2017-08-24T02:01:46.229Z,0
2017-08-24T02:02:26.740Z,0
2017-08-24T02:03:07.282Z,0
2017-08-24T02:03:47.829Z,0
2017-08-24T02:04:28.377Z,0
2017-08-24T02:05:08.919Z,0
2017-08-24T02:05:49.450Z,0
2017-08-24T02:06:30.002Z,0
2017-08-24T02:07:10.545Z,0
2017-08-24T02:07:51.085Z,0
2017-08-24T02:08:31.627Z,0
2017-08-24T02:09:12.167Z,0
2017-08-24T02:09:52.704Z,0
2017-08-24T02:10:33.249Z,0
2017-08-24T02:11:13.785Z,0
2017-08-24T02:11:54.325Z,0
2017-08-24T02:12:34.871Z,0
2017-08-24T02:13:15.406Z,0
2017-08-24T02:13:55.946Z,0
2017-08-24T02:14:36.485Z,0
2017-08-24T02:15:17.072Z,0
2017-08-24T02:15:57.596Z,0
2017-08-24T02:16:38.136Z,0
2017-08-24T02:17:18.669Z,0
2017-08-24T02:17:59.210Z,0
2017-08-24T02:18:39.753Z,0
2017-08-24T02:19:20.292Z,0
2017-08-24T02:20:00.834Z,0
2017-08-24T02:20:41.390Z,0
2017-08-24T02:21:21.929Z,0
2017-08-24T02:22:02.474Z,0
2017-08-24T02:22:43.015Z,0
2017-08-24T02:23:23.563Z,0
2017-08-24T02:24:04.114Z,0
2017-08-24T02:24:44.642Z,0
2017-08-24T02:25:25.187Z,0
2017-08-24T02:26:05.723Z,0
2017-08-24T02:26:46.264Z,0
2017-08-24T02:27:26.801Z,0
2017-08-24T02:28:07.342Z,0
2017-08-24T02:28:47.892Z,0
2017-08-24T02:29:28.434Z,0
2017-08-24T02:30:08.969Z,0
2017-08-24T02:30:49.510Z,0
2017-08-24T02:31:30.052Z,0
2017-08-24T02:32:10.591Z,0
2017-08-24T02:32:51.132Z,0
2017-08-24T02:33:31.672Z,0
2017-08-24T02:34:12.213Z,0
2017-08-24T02:34:52.759Z,0
2017-08-24T02:35:33.301Z,0
2017-08-24T02:36:13.849Z,0
2017-08-24T02:36:54.390Z,0
2017-08-24T02:37:34.927Z,0
2017-08-24T02:38:15.457Z,0
2017-08-24T02:38:55.993Z,0
2017-08-24T02:39:36.537Z,0
2017-08-24T02:40:17.078Z,0
2017-08-24T02:40:57.620Z,0
2017-08-24T02:41:38.165Z,0
2017-08-24T02:42:18.709Z,0
2017-08-24T02:42:59.261Z,0
2017-08-24T02:43:39.797Z,0
2017-08-24T02:44:20.335Z,0
2017-08-24T02:45:00.884Z,0
2017-08-24T02:45:41.456Z,0
2017-08-24T02:46:21.977Z,0
2017-08-24T02:47:02.517Z,0
2017-08-24T02:47:43.057Z,0
2017-08-24T02:48:23.595Z,0
2017-08-24T02:49:04.136Z,0
2017-08-24T02:49:44.676Z,0
2017-08-24T02:50:25.214Z,0
2017-08-24T02:51:05.751Z,0
2017-08-24T02:51:46.293Z,0
2017-08-24T02:52:26.833Z,0
2017-08-24T02:53:07.371Z,0
2017-08-24T02:53:47.921Z,0
2017-08-24T02:54:28.461Z,0
2017-08-24T02:55:09.002Z,0
2017-08-24T02:55:49.587Z,0
2017-08-24T02:56:30.125Z,0
2017-08-24T02:57:10.665Z,0
2017-08-24T02:57:51.206Z,0
2017-08-24T02:58:31.744Z,0
2017-08-24T02:59:12.285Z,0
2017-08-24T02:59:52.829Z,0
2017-08-24T03:00:33.368Z,0
2017-08-24T03:01:13.911Z,0
2017-08-24T03:01:54.452Z,0
2017-08-24T03:02:35.002Z,0
2017-08-24T03:03:15.538Z,0
2017-08-24T03:03:56.083Z,0
2017-08-24T03:04:36.623Z,0
2017-08-24T03:05:17.154Z,0
2017-08-24T03:05:57.694Z,0
2017-08-24T03:06:38.232Z,0
2017-08-24T03:07:18.778Z,0
2017-08-24T03:07:59.320Z,0
2017-08-24T03:08:39.858Z,0
2017-08-24T03:10:59.386Z,0
2017-08-24T03:11:39.923Z,0
2017-08-24T03:12:20.465Z,0
2017-08-24T03:13:01.003Z,0
2017-08-24T03:13:41.545Z,0
2017-08-24T03:14:22.085Z,0
2017-08-24T03:15:02.635Z,0
2017-08-24T03:15:43.178Z,0
2017-08-24T03:16:23.718Z,0
2017-08-24T03:17:04.507Z,0
2017-08-24T03:17:45.044Z,0
2017-08-24T03:18:25.576Z,0
2017-08-24T03:19:06.106Z,0
2017-08-24T03:19:46.635Z,0
2017-08-24T03:20:27.189Z,0
2017-08-24T03:21:07.730Z,0
2017-08-24T03:21:48.251Z,0
2017-08-24T03:22:28.798Z,0
2017-08-24T03:23:09.329Z,0
2017-08-24T03:23:49.866Z,0
2017-08-24T03:24:30.404Z,0
2017-08-24T03:25:10.942Z,0
2017-08-24T03:25:51.579Z,0
2017-08-24T03:26:32.045Z,0
2017-08-24T03:27:12.588Z,0
2017-08-24T03:27:53.124Z,0
2017-08-24T03:28:33.693Z,0
2017-08-24T03:29:14.244Z,0
2017-08-24T03:29:54.791Z,0
2017-08-24T03:30:35.332Z,0
2017-08-24T03:31:15.891Z,0
2017-08-24T03:31:56.434Z,0
2017-08-24T03:32:36.965Z,0
2017-08-24T03:33:17.508Z,0
2017-08-24T03:33:58.059Z,0
2017-08-24T03:34:38.577Z,0
2017-08-24T03:35:19.107Z,0
2017-08-24T03:35:59.648Z,0
2017-08-24T03:36:40.192Z,0
2017-08-24T03:37:20.724Z,0
2017-08-24T03:38:01.255Z,0
2017-08-24T03:38:41.784Z,0
2017-08-24T03:39:22.317Z,0
2017-08-24T03:40:02.857Z,0
2017-08-24T03:40:43.399Z,0
2017-08-24T03:41:23.939Z,0
2017-08-24T03:42:04.476Z,0
2017-08-24T03:42:45.125Z,0
2017-08-24T03:43:25.709Z,0
2017-08-24T03:44:06.248Z,0
2017-08-24T03:44:46.779Z,0
2017-08-24T03:45:27.321Z,0
2017-08-24T03:46:07.859Z,0
2017-08-24T03:46:48.401Z,0
2017-08-24T03:47:28.936Z,0
2017-08-24T03:48:09.470Z,0
2017-08-24T03:48:50.008Z,0
2017-08-24T03:49:30.551Z,0
2017-08-24T03:50:11.197Z,0
2017-08-24T03:50:51.815Z,0
2017-08-24T03:51:32.363Z,0
2017-08-24T03:52:12.901Z,0
2017-08-24T03:52:53.439Z,0
2017-08-24T03:53:34.065Z,0
2017-08-24T03:54:14.605Z,0
2017-08-24T03:54:55.144Z,0
2017-08-24T03:55:35.687Z,0
2017-08-24T03:56:16.232Z,0
2017-08-24T03:56:56.766Z,0
2017-08-24T03:57:37.301Z,0
2017-08-24T03:58:17.839Z,0
2017-08-24T03:59:01.262Z,0
2017-08-24T03:59:43.973Z,0
2017-08-24T04:00:26.695Z,0
2017-08-24T04:01:09.799Z,0
2017-08-24T04:03:26.820Z,0
2017-08-24T04:04:08.840Z,0
2017-08-24T04:04:49.417Z,0
2017-08-24T04:05:29.947Z,0
2017-08-24T04:06:10.484Z,0
2017-08-24T04:06:51.022Z,0
2017-08-24T04:07:31.651Z,0
2017-08-24T04:08:12.182Z,0
2017-08-24T04:08:52.720Z,0
2017-08-24T04:09:33.261Z,0
2017-08-24T04:10:13.796Z,0
2017-08-24T04:10:54.330Z,0
2017-08-24T04:11:34.862Z,4
2017-08-24T04:12:17.469Z,4
2017-08-24T04:12:59.185Z,4
2017-08-24T04:13:39.866Z,0
2017-08-24T04:14:20.406Z,4
2017-08-24T04:15:00.947Z,4
2017-08-24T04:15:41.483Z,8
2017-08-24T04:16:22.014Z,8
2017-08-24T04:17:02.534Z,4
2017-08-24T04:17:43.078Z,8
2017-08-24T04:18:23.602Z,12
2017-08-24T04:19:04.142Z,8
2017-08-24T04:19:44.678Z,8
2017-08-24T04:20:25.217Z,12
2017-08-24T04:21:06.856Z,12
2017-08-24T04:21:49.062Z,16
2017-08-24T04:22:29.603Z,16
2017-08-24T04:23:10.141Z,16
2017-08-24T04:23:50.677Z,20
2017-08-24T04:24:31.219Z,20
2017-08-24T04:25:11.759Z,20
2017-08-24T04:25:52.300Z,24
2017-08-24T04:26:32.838Z,28
2017-08-24T04:27:13.378Z,32
2017-08-24T04:27:53.917Z,32
2017-08-24T04:28:34.445Z,32
2017-08-24T04:29:14.984Z,36
2017-08-24T04:29:55.533Z,36
2017-08-24T04:30:36.076Z,36
2017-08-24T04:31:16.612Z,40
2017-08-24T04:31:57.149Z,44
2017-08-24T04:32:37.688Z,44
2017-08-24T04:33:18.225Z,44
2017-08-24T04:33:58.762Z,48
2017-08-24T04:34:39.300Z,52
2017-08-24T04:35:19.841Z,56
2017-08-24T04:36:00.380Z,60
2017-08-24T04:36:40.919Z,68
2017-08-24T04:37:21.459Z,76
2017-08-24T04:38:01.998Z,80
2017-08-24T04:38:44.846Z,84
2017-08-24T04:39:25.957Z,92
2017-08-24T04:40:06.498Z,96
2017-08-24T04:40:47.032Z,104
2017-08-24T04:41:27.576Z,112
2017-08-24T04:42:08.116Z,120
2017-08-24T04:42:48.656Z,124
2017-08-24T04:43:29.194Z,132
2017-08-24T04:44:09.733Z,136
2017-08-24T04:44:50.272Z,140
2017-08-24T04:45:30.812Z,148
2017-08-24T04:46:11.340Z,148
2017-08-24T04:46:51.872Z,156
2017-08-24T04:47:32.415Z,160
2017-08-24T04:48:12.947Z,160
2017-08-24T04:48:53.481Z,160
2017-08-24T04:49:34.026Z,168
2017-08-24T04:50:14.565Z,172
2017-08-24T04:50:55.108Z,176
2017-08-24T04:51:35.644Z,180
2017-08-24T04:52:16.179Z,184
2017-08-24T04:52:56.717Z,192
2017-08-24T04:53:37.244Z,204
2017-08-24T04:54:17.781Z,208
2017-08-24T04:54:58.321Z,216
2017-08-24T04:55:38.861Z,220
2017-08-24T04:56:19.399Z,224
2017-08-24T04:56:59.951Z,232
2017-08-24T04:57:40.968Z,240
2017-08-24T04:58:24.031Z,252
2017-08-24T04:59:04.565Z,264
2017-08-24T04:59:45.142Z,276
2017-08-24T05:00:25.687Z,292
2017-08-24T05:01:06.273Z,312
2017-08-24T05:01:46.811Z,336
2017-08-24T05:02:27.362Z,364
2017-08-24T05:03:07.868Z,380
2017-08-24T05:03:48.409Z,404
2017-08-24T05:04:28.937Z,428
2017-08-24T05:05:09.475Z,452
2017-08-24T05:05:50.014Z,468
2017-08-24T05:06:30.530Z,488
2017-08-24T05:07:11.062Z,504
2017-08-24T05:07:51.595Z,520
2017-08-24T05:08:32.141Z,536
2017-08-24T05:09:12.679Z,560
2017-08-24T05:09:53.211Z,576
2017-08-24T05:10:33.745Z,600
2017-08-24T05:11:14.273Z,632
2017-08-24T05:11:54.813Z,672
2017-08-24T05:12:35.326Z,720
2017-08-24T05:13:15.849Z,772
2017-08-24T05:13:56.383Z,824
2017-08-24T05:14:36.920Z,868
2017-08-24T05:15:17.457Z,904
2017-08-24T05:15:57.997Z,936
2017-08-24T05:16:38.542Z,960
2017-08-24T05:17:19.082Z,988
2017-08-24T05:17:59.613Z,1004
2017-08-24T05:18:40.131Z,1016
2017-08-24T05:19:20.708Z,1012
2017-08-24T05:20:01.232Z,1004
2017-08-24T05:20:41.768Z,980
2017-08-24T05:21:22.301Z,948
2017-08-24T05:22:02.838Z,908
2017-08-24T05:22:43.361Z,860
2017-08-24T05:23:23.934Z,816
2017-08-24T05:24:04.505Z,768
2017-08-24T05:24:45.028Z,724
2017-08-24T05:25:25.550Z,692
2017-08-24T05:26:06.086Z,676
2017-08-24T05:26:46.623Z,684
2017-08-24T05:27:27.271Z,696
2017-08-24T05:28:10.393Z,720
2017-08-24T05:28:50.984Z,744
2017-08-24T05:29:31.524Z,768
2017-08-24T05:30:12.066Z,792
2017-08-24T05:30:52.605Z,820
2017-08-24T05:31:33.146Z,840
2017-08-24T05:32:13.695Z,860
2017-08-24T05:32:54.237Z,892
2017-08-24T05:33:34.777Z,916
2017-08-24T05:34:15.307Z,924
2017-08-24T05:34:55.848Z,944
2017-08-24T05:35:36.366Z,972
2017-08-24T05:36:16.901Z,1012
2017-08-24T05:36:57.440Z,1052
2017-08-24T05:37:37.974Z,1088
2017-08-24T05:38:18.515Z,1124
2017-08-24T05:40:53.134Z,1120
2017-08-24T05:41:33.675Z,1124
2017-08-24T05:42:14.214Z,1148
2017-08-24T05:42:54.748Z,1176
2017-08-24T05:43:35.290Z,1236
2017-08-24T05:44:15.826Z,1300
2017-08-24T05:44:56.371Z,1372
2017-08-24T05:45:36.905Z,1436
2017-08-24T05:46:17.441Z,1464
2017-08-24T05:46:57.987Z,1468
2017-08-24T05:47:38.519Z,1480
2017-08-24T05:48:19.043Z,1472
2017-08-24T05:48:59.577Z,1464
2017-08-24T05:49:40.116Z,1440
2017-08-24T05:50:20.651Z,1416
2017-08-24T05:51:01.188Z,1376
2017-08-24T05:51:41.771Z,1348
2017-08-24T05:52:22.291Z,1324
2017-08-24T05:53:02.826Z,1312
2017-08-24T05:53:43.351Z,1300
2017-08-24T05:54:23.908Z,1304
2017-08-24T05:55:04.445Z,1332
2017-08-24T05:55:45.012Z,1352
2017-08-24T05:56:25.548Z,1356
2017-08-24T05:57:06.082Z,1364
2017-08-24T05:57:46.623Z,1392
2017-08-24T05:58:27.152Z,1436
2017-08-24T05:59:07.680Z,1504
2017-08-24T05:59:48.211Z,1584
2017-08-24T06:00:28.814Z,1676
2017-08-24T06:01:09.339Z,1756
2017-08-24T06:01:49.865Z,1832
2017-08-24T06:02:30.400Z,1888
2017-08-24T06:03:10.933Z,1924
2017-08-24T06:03:51.493Z,1960
2017-08-24T06:04:31.982Z,2004
2017-08-24T06:05:12.511Z,2052
2017-08-24T06:05:53.281Z,2132
2017-08-24T06:06:34.156Z,2180
2017-08-24T06:07:14.741Z,2228
2017-08-24T06:07:55.359Z,2264
2017-08-24T06:08:36.065Z,2316
2017-08-24T06:09:16.616Z,2332
2017-08-24T06:09:57.131Z,2316
2017-08-24T06:10:37.668Z,2208
2017-08-24T06:11:18.210Z,2128
2017-08-24T06:11:58.737Z,2116
2017-08-24T06:12:39.275Z,2188
2017-08-24T06:13:19.822Z,2292
2017-08-24T06:14:00.366Z,2296
2017-08-24T06:14:40.903Z,2280
2017-08-24T06:15:21.449Z,2304
2017-08-24T06:16:01.987Z,2408
2017-08-24T06:16:42.528Z,2532
2017-08-24T06:17:23.056Z,2640
2017-08-24T06:18:03.602Z,2700
2017-08-24T06:18:44.143Z,2724
2017-08-24T06:19:24.677Z,2712
2017-08-24T06:20:05.236Z,2520
2017-08-24T06:20:45.774Z,2268
2017-08-24T06:21:26.314Z,2096
2017-08-24T06:22:06.849Z,2060
2017-08-24T06:22:47.390Z,2072
2017-08-24T06:23:27.923Z,2120
2017-08-24T06:24:08.482Z,2184
2017-08-24T06:24:49.012Z,2212
2017-08-24T06:25:29.552Z,2244
2017-08-24T06:26:10.094Z,2272
2017-08-24T06:26:50.631Z,2256
2017-08-24T06:27:31.156Z,2324
2017-08-24T06:28:11.695Z,2372
2017-08-24T06:28:52.224Z,2412
2017-08-24T06:29:32.761Z,2472
2017-08-24T06:30:13.293Z,2508
2017-08-24T06:30:53.833Z,2504
2017-08-24T06:31:34.376Z,2584
2017-08-24T06:32:14.922Z,2628
2017-08-24T06:32:55.486Z,2604
2017-08-24T06:33:36.016Z,2572
2017-08-24T06:34:16.552Z,2492
2017-08-24T06:34:57.080Z,2424
2017-08-24T06:35:37.621Z,2320
2017-08-24T06:36:18.159Z,2284
2017-08-24T06:36:58.743Z,2300
2017-08-24T06:37:39.257Z,2348
2017-08-24T06:38:19.796Z,2468
2017-08-24T06:39:00.330Z,2596
2017-08-24T06:39:40.876Z,2696
2017-08-24T06:40:21.455Z,2772
2017-08-24T06:41:02.018Z,2776
2017-08-24T06:41:43.626Z,2756
2017-08-24T06:42:24.276Z,2748
2017-08-24T06:43:04.780Z,2768
2017-08-24T06:43:45.315Z,2828
2017-08-24T06:44:25.853Z,2856
2017-08-24T06:45:06.392Z,2884
2017-08-24T06:45:46.927Z,2844
2017-08-24T06:46:27.461Z,2812
2017-08-24T06:47:07.997Z,2820
2017-08-24T06:47:48.536Z,2864
2017-08-24T06:48:29.083Z,2952
2017-08-24T06:49:09.633Z,3076
2017-08-24T06:49:52.046Z,3176
2017-08-24T06:50:32.587Z,3292
2017-08-24T06:51:13.125Z,3384
2017-08-24T06:51:53.740Z,3492
2017-08-24T06:52:34.274Z,3632
2017-08-24T06:53:14.800Z,3728
2017-08-24T06:53:55.331Z,3824
2017-08-24T06:54:35.873Z,3960
2017-08-24T06:55:16.411Z,4064
2017-08-24T06:55:56.956Z,4132
2017-08-24T06:56:37.497Z,4152
2017-08-24T06:57:18.035Z,4104
2017-08-24T06:57:58.575Z,4096
2017-08-24T06:58:39.111Z,4216
2017-08-24T06:59:19.645Z,4244
2017-08-24T07:00:00.198Z,4156
2017-08-24T07:00:40.734Z,4000
2017-08-24T07:01:21.271Z,3868
2017-08-24T07:02:01.817Z,3748
2017-08-24T07:02:42.350Z,3652
2017-08-24T07:03:22.892Z,3612
2017-08-24T07:04:03.430Z,3572
2017-08-24T07:04:43.970Z,3532
2017-08-24T07:05:24.511Z,3500
2017-08-24T07:06:05.052Z,3500
2017-08-24T07:06:45.591Z,3484
2017-08-24T07:07:26.128Z,3452
2017-08-24T07:08:06.669Z,3452
2017-08-24T07:08:47.202Z,3500
2017-08-24T07:09:27.740Z,3560
2017-08-24T07:10:08.274Z,3640
2017-08-24T07:10:48.809Z,3744
2017-08-24T07:11:29.349Z,3824
2017-08-24T07:12:09.888Z,3840
2017-08-24T07:12:50.431Z,3816
2017-08-24T07:13:30.962Z,3836
2017-08-24T07:14:11.504Z,4108
2017-08-24T07:14:52.042Z,4412
2017-08-24T07:15:32.580Z,4696
2017-08-24T07:16:13.121Z,4940
2017-08-24T07:16:53.660Z,5092
2017-08-24T07:17:34.200Z,5280
2017-08-24T07:18:14.735Z,5496
2017-08-24T07:18:55.267Z,5648
2017-08-24T07:19:35.797Z,5804
2017-08-24T07:20:16.335Z,5884
2017-08-24T07:20:56.874Z,5872
2017-08-24T07:21:37.414Z,5860
2017-08-24T07:22:17.955Z,5868
2017-08-24T07:22:58.496Z,5836
2017-08-24T07:23:39.035Z,5836
2017-08-24T07:24:19.572Z,5804
2017-08-24T07:25:00.114Z,5844
2017-08-24T07:25:40.645Z,5796
2017-08-24T07:26:21.183Z,5612
2017-08-24T07:27:01.721Z,5528
2017-08-24T07:27:42.258Z,5456
2017-08-24T07:28:22.793Z,5312
2017-08-24T07:29:03.327Z,5588
2017-08-24T07:29:43.874Z,6000
2017-08-24T07:30:24.406Z,6164
2017-08-24T07:31:04.949Z,6120
2017-08-24T07:31:45.488Z,6004
2017-08-24T07:32:26.026Z,5896
2017-08-24T07:33:06.563Z,5864
2017-08-24T07:33:47.100Z,5904
2017-08-24T07:34:27.641Z,5976
2017-08-24T07:35:08.182Z,6044
2017-08-24T07:35:48.718Z,6128
2017-08-24T07:36:29.246Z,6188
2017-08-24T07:37:09.782Z,6284
2017-08-24T07:37:50.319Z,6332
2017-08-24T07:38:30.860Z,6448
2017-08-24T07:39:11.397Z,6672
2017-08-24T07:39:51.935Z,7108
2017-08-24T07:40:32.473Z,7732
2017-08-24T07:41:13.016Z,8548
2017-08-24T07:41:53.553Z,8792
2017-08-24T07:42:34.088Z,10352
2017-08-24T07:43:14.629Z,11316
2017-08-24T07:43:55.176Z,12860
2017-08-24T07:44:35.714Z,14044
2017-08-24T07:45:16.250Z,14256
2017-08-24T07:45:56.784Z,14812
2017-08-24T07:46:37.319Z,15616
2017-08-24T07:47:17.871Z,15360
2017-08-24T07:47:58.390Z,14800
2017-08-24T07:48:38.928Z,16384
2017-08-24T07:49:19.465Z,16256
2017-08-24T07:50:00.010Z,15616
2017-08-24T07:50:40.546Z,15584
2017-08-24T07:51:21.085Z,10680
2017-08-24T07:52:01.625Z,18944
2017-08-24T07:52:42.143Z,20096
2017-08-24T07:53:22.668Z,20736
2017-08-24T07:54:03.221Z,19904
2017-08-24T07:54:43.743Z,19616
2017-08-24T07:55:24.279Z,17664
2017-08-24T07:56:04.817Z,16000
2017-08-24T07:56:45.355Z,15136
2017-08-24T07:57:25.894Z,14412
2017-08-24T07:58:06.435Z,15704
2017-08-24T07:58:46.977Z,19424
2017-08-24T07:59:27.513Z,19776
2017-08-24T08:00:08.052Z,19744
2017-08-24T08:00:48.584Z,18144
2017-08-24T08:01:29.125Z,19616
2017-08-24T08:02:09.664Z,19936
2017-08-24T08:02:50.200Z,17184
2017-08-24T08:03:30.741Z,14620
2017-08-24T08:04:11.291Z,12760
2017-08-24T08:04:51.832Z,12460
2017-08-24T08:05:32.369Z,12512
2017-08-24T08:06:12.910Z,12688
2017-08-24T08:06:53.453Z,15356
2017-08-24T08:07:33.989Z,14520
2017-08-24T08:08:14.529Z,11900
2017-08-24T08:08:55.067Z,13944
2017-08-24T08:09:35.606Z,13668
2017-08-24T08:10:16.146Z,14444
2017-08-24T08:10:56.689Z,13596
2017-08-24T08:11:37.233Z,15316
2017-08-24T08:12:17.771Z,17120
2017-08-24T08:12:58.317Z,20064
2017-08-24T08:13:38.857Z,22496
2017-08-24T08:14:19.398Z,20352
2017-08-24T08:14:59.933Z,24736
2017-08-24T08:15:40.475Z,25728
2017-08-24T08:16:21.007Z,26688
2017-08-24T08:17:01.540Z,25536
2017-08-24T08:17:42.081Z,29344
2017-08-24T08:18:22.622Z,29760
2017-08-24T08:19:03.163Z,28128
2017-08-24T08:19:43.721Z,23968
2017-08-24T08:20:24.239Z,30080
2017-08-24T08:21:04.783Z,26240
2017-08-24T08:21:45.321Z,19872
2017-08-24T08:22:25.862Z,19104
2017-08-24T08:23:06.399Z,16088
2017-08-24T08:23:46.937Z,20224
2017-08-24T08:24:27.476Z,25184
2017-08-24T08:25:08.014Z,25952
2017-08-24T08:25:48.549Z,29504
2017-08-24T08:26:29.085Z,29536
2017-08-24T08:27:09.627Z,26048
2017-08-24T08:27:50.186Z,9320
2017-08-24T08:28:30.727Z,30400
2017-08-24T08:29:11.268Z,35488
2017-08-24T08:29:51.806Z,36480
2017-08-24T08:30:32.349Z,11540
2017-08-24T08:31:12.893Z,30144
2017-08-24T08:31:53.445Z,35264
2017-08-24T08:32:33.972Z,21408
2017-08-24T08:33:14.516Z,21728
2017-08-24T08:33:55.053Z,17600
2017-08-24T08:34:35.592Z,15176
2017-08-24T08:35:16.134Z,14776
2017-08-24T08:35:56.674Z,13716
2017-08-24T08:36:37.212Z,21248
2017-08-24T08:37:17.762Z,24416
2017-08-24T08:37:58.302Z,32128
2017-08-24T08:38:38.840Z,26080
2017-08-24T08:39:19.389Z,13660
2017-08-24T08:39:59.924Z,9104
2017-08-24T08:40:40.472Z,18912
2017-08-24T08:41:21.020Z,17664
2017-08-24T08:42:01.562Z,8628
2017-08-24T08:42:42.105Z,13124
2017-08-24T08:43:22.653Z,13060
2017-08-24T08:44:03.209Z,11404
2017-08-24T08:44:43.745Z,11536
2017-08-24T08:45:24.288Z,12324
2017-08-24T08:46:04.836Z,11748
2017-08-24T08:46:45.381Z,11868
2017-08-24T08:47:25.916Z,11980
2017-08-24T08:48:06.458Z,12100
2017-08-24T08:48:47.001Z,12124
2017-08-24T08:49:27.542Z,12384
2017-08-24T08:50:08.105Z,12604
2017-08-24T08:50:48.620Z,11780
2017-08-24T08:51:29.163Z,11680
2017-08-24T08:52:09.703Z,11980
2017-08-24T08:52:50.245Z,12080
2017-08-24T08:53:30.791Z,11568
2017-08-24T08:54:11.334Z,11900
2017-08-24T08:54:51.869Z,11764
2017-08-24T08:55:32.409Z,11772
2017-08-24T08:56:12.959Z,11616
2017-08-24T08:56:53.507Z,11332
2017-08-24T08:57:34.051Z,11096
2017-08-24T08:58:14.578Z,11880
2017-08-24T08:58:55.121Z,12036
2017-08-24T08:59:35.669Z,12508
2017-08-24T09:00:16.210Z,12912
2017-08-24T09:00:56.755Z,12532
2017-08-24T09:01:37.299Z,11680
2017-08-24T09:02:17.853Z,12824
2017-08-24T09:02:58.404Z,12656
2017-08-24T09:03:38.947Z,12848
2017-08-24T09:04:19.480Z,12864
2017-08-24T09:05:00.020Z,13592
2017-08-24T09:05:40.563Z,16416
2017-08-24T09:06:21.104Z,26688
2017-08-24T09:07:01.642Z,36416
2017-08-24T09:07:42.199Z,44416
2017-08-24T09:08:22.737Z,46208
2017-08-24T09:09:03.280Z,42336
2017-08-24T09:09:43.822Z,33120
2017-08-24T09:10:24.365Z,22528
2017-08-24T09:11:04.906Z,18880
2017-08-24T09:11:45.452Z,17888
2017-08-24T09:12:26.000Z,14284
2017-08-24T09:13:06.542Z,16000
2017-08-24T09:13:47.083Z,13188
2017-08-24T09:14:27.628Z,10840
2017-08-24T09:15:08.176Z,9840
2017-08-24T09:15:48.714Z,10324
2017-08-24T09:16:29.259Z,13160
2017-08-24T09:17:09.793Z,13900
2017-08-24T09:17:50.332Z,14432
2017-08-24T09:18:30.869Z,23744
2017-08-24T09:19:11.410Z,24160
2017-08-24T09:19:51.958Z,32960
2017-08-24T09:20:32.504Z,34848
2017-08-24T09:21:13.040Z,33408
2017-08-24T09:21:53.595Z,38752
2017-08-24T09:22:34.127Z,41600
2017-08-24T09:23:14.668Z,41152
2017-08-24T09:23:55.210Z,24736
2017-08-24T09:24:35.750Z,12592
2017-08-24T09:25:16.296Z,28960
2017-08-24T09:25:56.838Z,28000
2017-08-24T09:26:37.381Z,12840
2017-08-24T09:27:17.930Z,13456
2017-08-24T09:27:58.461Z,44352
2017-08-24T09:28:39.007Z,40064
2017-08-24T09:29:19.550Z,38912
2017-08-24T09:30:00.095Z,13624